Time;durP1;ratioP1;P1;durP2;ratioP2;P2;SDS_P1;SDS_P2;PMS_P1;PMS_P2;Temp;Humidity;BMP_temperature;BMP_pressure;BME280_temperature;BME280_humidity;BME280_pressure;Samples;Min_cycle;Max_cycle;Signal;HPM_P1;HPM_P2
2023/03/21 00:02:08;;;;;;;26.10;15.70;;;;;;;-128.00;-1.00;-1.00;18467;349;7504590;-36
2023/03/21 00:04:34;;;;;;;26.80;13.10;;;;;;;-128.00;-1.00;-1.00;18487;297;7505000;-36
2023/03/21 00:06:59;;;;;;;22.40;12.70;;;;;;;-128.00;-1.00;-1.00;18481;297;7506080;-33
2023/03/21 00:09:25;;;;;;;32.20;15.50;;;;;;;-128.00;-1.00;-1.00;18459;298;7506618;-33
2023/03/21 00:11:51;;;;;;;24.40;14.60;;;;;;;-128.00;-1.00;-1.00;18454;349;7504460;-33
2023/03/21 00:14:17;;;;;;;40.90;16.40;;;;;;;-128.00;-1.00;-1.00;18474;297;7506174;-33
2023/03/21 00:16:44;;;;;;;31.70;15.00;;;;;;;-128.00;-1.00;-1.00;18447;297;7504725;-35
2023/03/21 00:19:10;;;;;;;23.60;14.20;;;;;;;-128.00;-1.00;-1.00;18436;298;7506373;-33
2023/03/21 00:21:37;;;;;;;25.50;14.70;;;;;;;-128.00;-1.00;-1.00;18464;297;7504317;-33
2023/03/21 00:24:04;;;;;;;27.80;13.70;;;;;;;-128.00;-1.00;-1.00;18465;297;7505593;-36
2023/03/21 00:26:31;;;;;;;26.40;15.20;;;;;;;-128.00;-1.00;-1.00;18466;297;7505054;-33
2023/03/21 00:28:56;;;;;;;24.90;13.50;;;;;;;-128.00;-1.00;-1.00;18466;297;7506608;-33
2023/03/21 00:31:22;;;;;;;22.30;14.10;;;;;;;-128.00;-1.00;-1.00;18469;297;7504536;-33
2023/03/21 00:33:48;;;;;;;31.60;15.80;;;;;;;-128.00;-1.00;-1.00;18887;341;7504943;-36
2023/03/21 00:36:15;;;;;;;29.00;13.50;;;;;;;-128.00;-1.00;-1.00;18855;297;7507082;-35
2023/03/21 00:38:41;;;;;;;28.40;14.20;;;;;;;-128.00;-1.00;-1.00;18828;322;7505241;-34
2023/03/21 00:41:10;;;;;;;28.50;15.40;;;;;;;-128.00;-1.00;-1.00;18856;305;7506351;-34
2023/03/21 00:43:36;;;;;;;20.40;10.50;;;;;;;-128.00;-1.00;-1.00;18441;297;7506218;-32
2023/03/21 00:46:02;;;;;;;23.80;13.10;;;;;;;-128.00;-1.00;-1.00;18457;297;7504709;-35
2023/03/21 00:48:28;;;;;;;27.30;16.30;;;;;;;-128.00;-1.00;-1.00;18451;285;7505767;-32
2023/03/21 00:50:54;;;;;;;22.20;12.70;;;;;;;-128.00;-1.00;-1.00;18469;285;7504744;-32
2023/03/21 00:53:20;;;;;;;24.10;15.00;;;;;;;-128.00;-1.00;-1.00;18489;297;7504767;-37
2023/03/21 00:55:46;;;;;;;26.80;13.10;;;;;;;-128.00;-1.00;-1.00;18479;297;7506368;-33
2023/03/21 00:58:12;;;;;;;29.00;13.90;;;;;;;-128.00;-1.00;-1.00;18468;297;7504656;-37
2023/03/21 01:00:38;;;;;;;26.70;12.60;;;;;;;-128.00;-1.00;-1.00;18506;348;7505760;-36
2023/03/21 01:03:06;;;;;;;25.20;13.00;;;;;;;-128.00;-1.00;-1.00;18455;342;7505166;-36
2023/03/21 01:08:14;;;;;;;30.80;15.10;;;;;;;-128.00;-1.00;-1.00;18451;289;7506089;-36
2023/03/21 01:10:41;;;;;;;29.50;14.30;;;;;;;-128.00;-1.00;-1.00;18467;297;7505658;-34
2023/03/21 01:13:07;;;;;;;20.60;11.10;;;;;;;-128.00;-1.00;-1.00;18465;285;7504846;-34
2023/03/21 01:15:34;;;;;;;34.00;15.90;;;;;;;-128.00;-1.00;-1.00;18492;296;7506077;-34
2023/03/21 01:18:00;;;;;;;23.00;13.50;;;;;;;-128.00;-1.00;-1.00;18474;296;7506098;-35
2023/03/21 01:20:26;;;;;;;22.50;13.80;;;;;;;-128.00;-1.00;-1.00;18452;285;7504624;-35
2023/03/21 01:22:52;;;;;;;29.90;16.20;;;;;;;-128.00;-1.00;-1.00;18466;285;7505493;-33
2023/03/21 01:25:18;;;;;;;33.80;16.90;;;;;;;-128.00;-1.00;-1.00;18466;289;7506283;-34
2023/03/21 01:27:43;;;;;;;37.80;17.10;;;;;;;-128.00;-1.00;-1.00;18465;296;7505538;-37
2023/03/21 01:30:10;;;;;;;29.40;15.40;;;;;;;-128.00;-1.00;-1.00;18450;324;7506582;-36
2023/03/21 01:32:36;;;;;;;28.30;17.30;;;;;;;-128.00;-1.00;-1.00;18471;297;7505616;-34
2023/03/21 01:35:03;;;;;;;34.70;17.70;;;;;;;-128.00;-1.00;-1.00;18481;337;7504487;-34
2023/03/21 01:37:29;;;;;;;42.20;17.00;;;;;;;-128.00;-1.00;-1.00;18446;297;7504621;-34
2023/03/21 01:39:54;;;;;;;31.30;17.80;;;;;;;-128.00;-1.00;-1.00;18472;297;7505157;-36
2023/03/21 01:42:20;;;;;;;28.90;14.70;;;;;;;-128.00;-1.00;-1.00;18459;296;7506032;-36
2023/03/21 01:44:59;;;;;;;32.20;16.10;;;;;;;-128.00;-1.00;-1.00;18875;289;7504434;-36
2023/03/21 01:47:25;;;;;;;26.20;13.60;;;;;;;-128.00;-1.00;-1.00;18448;320;7504789;-34
2023/03/21 01:49:53;;;;;;;27.80;13.90;;;;;;;-128.00;-1.00;-1.00;18461;348;7504679;-33
2023/03/21 01:52:22;;;;;;;20.90;11.50;;;;;;;-128.00;-1.00;-1.00;18471;297;7504892;-33
2023/03/21 01:54:48;;;;;;;31.20;14.60;;;;;;;-128.00;-1.00;-1.00;18461;299;7504826;-33
2023/03/21 01:57:17;;;;;;;30.80;16.10;;;;;;;-128.00;-1.00;-1.00;18461;297;7504357;-36
2023/03/21 01:59:45;;;;;;;34.70;16.80;;;;;;;-128.00;-1.00;-1.00;18471;289;7504770;-35
2023/03/21 02:02:13;;;;;;;27.90;15.40;;;;;;;-128.00;-1.00;-1.00;18467;296;7506048;-35
2023/03/21 02:04:39;;;;;;;22.20;12.30;;;;;;;-128.00;-1.00;-1.00;18474;341;7506435;-35
2023/03/21 02:07:11;;;;;;;25.10;12.40;;;;;;;-128.00;-1.00;-1.00;18450;289;7506256;-33
2023/03/21 02:09:39;;;;;;;19.20;11.60;;;;;;;-128.00;-1.00;-1.00;18447;312;7504172;-36
2023/03/21 02:12:08;;;;;;;33.10;12.30;;;;;;;-128.00;-1.00;-1.00;18462;298;7504473;-36
2023/03/21 02:14:34;;;;;;;40.60;18.40;;;;;;;-128.00;-1.00;-1.00;18467;285;7504939;-36
2023/03/21 02:17:19;;;;;;;27.70;14.20;;;;;;;-128.00;-1.00;-1.00;18451;297;7505776;-33
2023/03/21 02:20:20;;;;;;;21.00;13.10;;;;;;;-128.00;-1.00;-1.00;18446;285;7504506;-36
2023/03/21 02:23:03;;;;;;;25.40;13.20;;;;;;;-128.00;-1.00;-1.00;18465;297;7504794;-36
2023/03/21 02:25:53;;;;;;;22.10;14.20;;;;;;;-128.00;-1.00;-1.00;18499;348;7505083;-34
2023/03/21 02:28:28;;;;;;;29.00;15.00;;;;;;;-128.00;-1.00;-1.00;18486;285;7504776;-35
2023/03/21 02:31:18;;;;;;;17.70;11.40;;;;;;;-128.00;-1.00;-1.00;18477;285;7506164;-33
2023/03/21 02:34:09;;;;;;;31.30;16.30;;;;;;;-128.00;-1.00;-1.00;18454;296;7505174;-33
2023/03/21 02:36:52;;;;;;;29.00;16.10;;;;;;;-128.00;-1.00;-1.00;18479;297;7505284;-33
2023/03/21 02:39:25;;;;;;;18.80;11.50;;;;;;;-128.00;-1.00;-1.00;18470;297;7504562;-35
2023/03/21 02:42:00;;;;;;;26.90;15.00;;;;;;;-128.00;-1.00;-1.00;18465;305;7505329;-32
2023/03/21 02:44:32;;;;;;;24.60;14.60;;;;;;;-128.00;-1.00;-1.00;18472;289;7506043;-35
2023/03/21 02:47:06;;;;;;;24.70;14.50;;;;;;;-128.00;-1.00;-1.00;18465;296;7504432;-33
2023/03/21 02:49:46;;;;;;;27.70;16.60;;;;;;;-128.00;-1.00;-1.00;18457;289;7505551;-33
2023/03/21 02:52:15;;;;;;;24.00;14.20;;;;;;;-128.00;-1.00;-1.00;18468;297;7506646;-33
2023/03/21 02:54:42;;;;;;;32.20;18.10;;;;;;;-128.00;-1.00;-1.00;18477;285;7506097;-35
2023/03/21 02:57:08;;;;;;;19.50;12.00;;;;;;;-128.00;-1.00;-1.00;18463;285;7504404;-34
2023/03/21 02:59:33;;;;;;;24.60;14.20;;;;;;;-128.00;-1.00;-1.00;18461;296;7505038;-36
2023/03/21 03:01:59;;;;;;;37.50;18.20;;;;;;;-128.00;-1.00;-1.00;18477;297;7504754;-36
2023/03/21 03:04:26;;;;;;;28.70;14.70;;;;;;;-128.00;-1.00;-1.00;18474;297;7504830;-34
2023/03/21 03:07:09;;;;;;;46.30;23.00;;;;;;;-128.00;-1.00;-1.00;18465;285;7504144;-36
2023/03/21 03:09:51;;;;;;;29.50;18.60;;;;;;;-128.00;-1.00;-1.00;18448;348;7506357;-33
2023/03/21 03:12:26;;;;;;;32.10;15.70;;;;;;;-128.00;-1.00;-1.00;18455;297;7506054;-33
2023/03/21 03:15:00;;;;;;;17.50;11.30;;;;;;;-128.00;-1.00;-1.00;18463;297;7504408;-33
2023/03/21 03:17:41;;;;;;;43.50;22.20;;;;;;;-128.00;-1.00;-1.00;18473;297;7504450;-36
2023/03/21 03:20:20;;;;;;;42.70;20.70;;;;;;;-128.00;-1.00;-1.00;18470;297;7506058;-34
2023/03/21 03:23:06;;;;;;;48.90;19.40;;;;;;;-128.00;-1.00;-1.00;18459;297;7504323;-33
2023/03/21 03:25:39;;;;;;;29.40;15.50;;;;;;;-128.00;-1.00;-1.00;18459;297;7504577;-35
2023/03/21 03:28:05;;;;;;;24.90;15.30;;;;;;;-128.00;-1.00;-1.00;18456;297;7504986;-36
2023/03/21 03:30:31;;;;;;;31.30;16.90;;;;;;;-128.00;-1.00;-1.00;18466;296;7504382;-34
2023/03/21 03:32:58;;;;;;;39.10;18.50;;;;;;;-128.00;-1.00;-1.00;18480;320;7505074;-35
2023/03/21 03:35:24;;;;;;;47.10;22.00;;;;;;;-128.00;-1.00;-1.00;18467;289;7505824;-33
2023/03/21 03:37:54;;;;;;;22.40;13.00;;;;;;;-128.00;-1.00;-1.00;18445;297;7505882;-33
2023/03/21 03:40:26;;;;;;;30.30;19.10;;;;;;;-128.00;-1.00;-1.00;18485;297;7507277;-35
2023/03/21 03:42:52;;;;;;;39.50;22.10;;;;;;;-128.00;-1.00;-1.00;18434;297;7506064;-35
2023/03/21 03:45:19;;;;;;;43.00;22.20;;;;;;;-128.00;-1.00;-1.00;18487;289;7505159;-33
2023/03/21 03:47:52;;;;;;;49.50;23.80;;;;;;;-128.00;-1.00;-1.00;18466;289;7506336;-34
2023/03/21 03:50:30;;;;;;;70.40;23.60;;;;;;;-128.00;-1.00;-1.00;18487;336;7505451;-34
2023/03/21 03:53:01;;;;;;;36.70;17.20;;;;;;;-128.00;-1.00;-1.00;18448;297;7504633;-33
2023/03/21 03:55:26;;;;;;;27.70;14.30;;;;;;;-128.00;-1.00;-1.00;18469;285;7505220;-34
2023/03/21 03:57:52;;;;;;;26.60;14.10;;;;;;;-128.00;-1.00;-1.00;18466;297;7504276;-36
2023/03/21 04:00:19;;;;;;;20.80;10.30;;;;;;;-128.00;-1.00;-1.00;18475;297;7505429;-33
2023/03/21 04:02:45;;;;;;;31.00;15.70;;;;;;;-128.00;-1.00;-1.00;18485;285;7504451;-35
2023/03/21 04:05:12;;;;;;;30.80;16.20;;;;;;;-128.00;-1.00;-1.00;18467;297;7505202;-33
2023/03/21 04:07:37;;;;;;;33.90;15.10;;;;;;;-128.00;-1.00;-1.00;18457;296;7507458;-32
2023/03/21 04:10:04;;;;;;;33.80;18.10;;;;;;;-128.00;-1.00;-1.00;18457;297;7505797;-35
2023/03/21 04:12:30;;;;;;;22.90;14.80;;;;;;;-128.00;-1.00;-1.00;18468;297;7505353;-33
2023/03/21 04:14:55;;;;;;;29.90;15.80;;;;;;;-128.00;-1.00;-1.00;18460;337;7506400;-32
2023/03/21 04:17:21;;;;;;;30.90;15.50;;;;;;;-128.00;-1.00;-1.00;18474;289;7506602;-32
2023/03/21 04:19:50;;;;;;;32.20;14.50;;;;;;;-128.00;-1.00;-1.00;18500;289;7504666;-31
2023/03/21 04:22:16;;;;;;;35.00;16.50;;;;;;;-128.00;-1.00;-1.00;18498;297;7505924;-44
2023/03/21 04:24:42;;;;;;;34.30;16.40;;;;;;;-128.00;-1.00;-1.00;18477;289;7505401;-35
2023/03/21 04:27:08;;;;;;;29.20;12.80;;;;;;;-128.00;-1.00;-1.00;18481;289;7505964;-33
2023/03/21 04:29:34;;;;;;;30.70;14.20;;;;;;;-128.00;-1.00;-1.00;18469;285;7506435;-34
2023/03/21 04:32:00;;;;;;;35.50;17.10;;;;;;;-128.00;-1.00;-1.00;18888;297;7504759;-34
2023/03/21 04:34:29;;;;;;;37.50;19.00;;;;;;;-128.00;-1.00;-1.00;18854;297;7505008;-35
2023/03/21 05:14:44;;;;;;;59.10;24.80;;;;;;;-101.10;19.20;19881.51;19591;287;8044794;-34
2023/03/21 05:17:14;;;;;;;56.20;23.90;;;;;;;-128.00;-1.00;-1.00;18610;296;7504147;-34
2023/03/21 05:19:40;;;;;;;51.00;24.40;;;;;;;-128.00;-1.00;-1.00;18492;297;7506406;-33
2023/03/21 05:22:08;;;;;;;55.90;24.60;;;;;;;-128.00;-1.00;-1.00;18465;300;7506645;-34
2023/03/21 05:24:38;;;;;;;63.20;25.10;;;;;;;-128.00;-1.00;-1.00;18475;285;7504631;-33
2023/03/21 05:27:03;;;;;;;57.80;25.30;;;;;;;-128.00;-1.00;-1.00;18483;285;7506205;-33
2023/03/21 05:29:29;;;;;;;60.00;25.30;;;;;;;-128.00;-1.00;-1.00;18484;285;7506640;-34
2023/03/21 05:31:56;;;;;;;47.90;15.40;;;;;;;-128.00;-1.00;-1.00;18485;296;7504508;-34
2023/03/21 05:34:21;;;;;;;42.70;19.50;;;;;;;-128.00;-1.00;-1.00;18490;312;7504353;-36
2023/03/21 05:36:47;;;;;;;43.90;19.10;;;;;;;-128.00;-1.00;-1.00;18466;289;7505917;-33
2023/03/21 05:39:13;;;;;;;34.50;17.90;;;;;;;-128.00;-1.00;-1.00;18461;296;7504700;-33
2023/03/21 05:41:39;;;;;;;50.70;22.10;;;;;;;-128.00;-1.00;-1.00;18871;320;7504710;-35
2023/03/21 05:44:05;;;;;;;49.70;19.70;;;;;;;-128.00;-1.00;-1.00;18881;289;7504468;-36
2023/03/21 05:46:31;;;;;;;49.60;25.10;;;;;;;-128.00;-1.00;-1.00;18491;289;7506005;-33
2023/03/21 05:48:57;;;;;;;47.50;18.50;;;;;;;-128.00;-1.00;-1.00;18458;296;7504099;-33
2023/03/21 05:51:23;;;;;;;49.00;24.60;;;;;;;-128.00;-1.00;-1.00;18491;289;7506492;-36
2023/03/21 05:53:50;;;;;;;48.20;27.70;;;;;;;-128.00;-1.00;-1.00;18468;296;7504567;-34
2023/03/21 05:56:16;;;;;;;43.30;17.20;;;;;;;-128.00;-1.00;-1.00;18491;296;7505580;-33
2023/03/21 05:58:41;;;;;;;59.20;25.00;;;;;;;-128.00;-1.00;-1.00;18482;323;7504351;-33
2023/03/21 06:01:08;;;;;;;63.60;31.20;;;;;;;-128.00;-1.00;-1.00;18860;349;7505191;-33
2023/03/21 06:03:34;;;;;;;67.10;30.70;;;;;;;-128.00;-1.00;-1.00;18850;285;7506112;-36
2023/03/21 06:06:02;;;;;;;66.90;30.20;;;;;;;-128.00;-1.00;-1.00;18855;320;7504715;-34
2023/03/21 06:08:28;;;;;;;61.90;25.20;;;;;;;-128.00;-1.00;-1.00;18470;336;7504870;-36
2023/03/21 06:10:54;;;;;;;54.00;24.70;;;;;;;-128.00;-1.00;-1.00;18473;348;7505985;-36
2023/03/21 06:13:20;;;;;;;58.40;27.90;;;;;;;-128.00;-1.00;-1.00;18466;296;7505955;-33
2023/03/21 06:15:46;;;;;;;72.20;28.60;;;;;;;-128.00;-1.00;-1.00;18460;285;7505605;-35
2023/03/21 06:18:12;;;;;;;66.10;28.10;;;;;;;-128.00;-1.00;-1.00;18441;299;7504529;-35
2023/03/21 06:20:38;;;;;;;62.30;24.80;;;;;;;-128.00;-1.00;-1.00;18458;297;7505997;-32
2023/03/21 06:23:04;;;;;;;70.70;28.20;;;;;;;-128.00;-1.00;-1.00;18468;298;7505644;-33
2023/03/21 06:25:29;;;;;;;54.30;26.90;;;;;;;-128.00;-1.00;-1.00;18459;288;7505219;-33
2023/03/21 06:27:55;;;;;;;54.60;27.20;;;;;;;-128.00;-1.00;-1.00;18466;297;7504474;-35
2023/03/21 06:30:21;;;;;;;57.00;26.90;;;;;;;-128.00;-1.00;-1.00;18461;348;7504775;-32
2023/03/21 06:32:46;;;;;;;62.80;27.20;;;;;;;-128.00;-1.00;-1.00;18484;297;7506438;-35
2023/03/21 06:35:12;;;;;;;67.90;29.70;;;;;;;-128.00;-1.00;-1.00;18499;297;7505031;-35
2023/03/21 06:37:38;;;;;;;47.70;22.50;;;;;;;-128.00;-1.00;-1.00;18487;296;7504915;-33
2023/03/21 06:40:04;;;;;;;93.50;30.40;;;;;;;-128.00;-1.00;-1.00;18477;308;7505051;-35
2023/03/21 06:42:31;;;;;;;67.80;30.80;;;;;;;-128.00;-1.00;-1.00;18482;348;7504443;-34
2023/03/21 06:44:57;;;;;;;68.30;27.50;;;;;;;-128.00;-1.00;-1.00;18477;297;7504465;-34
2023/03/21 06:47:24;;;;;;;72.00;28.30;;;;;;;-128.00;-1.00;-1.00;18467;289;7504629;-35
2023/03/21 06:49:50;;;;;;;58.70;24.80;;;;;;;-128.00;-1.00;-1.00;18455;348;7506051;-34
2023/03/21 06:52:16;;;;;;;70.00;29.10;;;;;;;-128.00;-1.00;-1.00;18494;308;7504410;-35
2023/03/21 06:54:42;;;;;;;55.70;27.30;;;;;;;-128.00;-1.00;-1.00;18876;296;7505873;-37
2023/03/21 06:57:08;;;;;;;65.60;29.30;;;;;;;-128.00;-1.00;-1.00;18878;285;7504289;-35
2023/03/21 06:59:35;;;;;;;70.90;29.30;;;;;;;-128.00;-1.00;-1.00;18847;298;7504743;-33
2023/03/21 07:02:01;;;;;;;52.60;23.90;;;;;;;-128.00;-1.00;-1.00;18464;297;7506131;-36
2023/03/21 07:04:27;;;;;;;59.80;27.50;;;;;;;-128.00;-1.00;-1.00;18465;289;7505259;-34
2023/03/21 07:06:53;;;;;;;62.10;24.50;;;;;;;-128.00;-1.00;-1.00;18464;297;7504626;-33
2023/03/21 07:09:23;;;;;;;54.90;25.20;;;;;;;-128.00;-1.00;-1.00;18446;285;7504702;-35
2023/03/21 07:11:52;;;;;;;46.60;25.70;;;;;;;-128.00;-1.00;-1.00;18468;297;7504748;-33
2023/03/21 07:14:18;;;;;;;61.60;24.40;;;;;;;-128.00;-1.00;-1.00;18446;297;7506248;-36
2023/03/21 07:16:44;;;;;;;35.00;16.90;;;;;;;-128.00;-1.00;-1.00;18446;297;7504630;-35
2023/03/21 07:19:09;;;;;;;60.70;25.50;;;;;;;-128.00;-1.00;-1.00;18462;289;7505156;-36
2023/03/21 07:21:35;;;;;;;43.90;21.80;;;;;;;-128.00;-1.00;-1.00;18451;285;7504699;-36
2023/03/21 07:24:01;;;;;;;43.30;17.50;;;;;;;-128.00;-1.00;-1.00;18482;289;7504394;-36
2023/03/21 07:26:27;;;;;;;32.60;16.00;;;;;;;-128.00;-1.00;-1.00;18456;297;7505017;-34
2023/03/21 07:28:53;;;;;;;57.10;26.90;;;;;;;-128.00;-1.00;-1.00;18882;296;7504979;-36
2023/03/21 07:31:20;;;;;;;44.70;21.30;;;;;;;-128.00;-1.00;-1.00;18869;296;7504735;-33
2023/03/21 07:33:45;;;;;;;50.50;22.50;;;;;;;-128.00;-1.00;-1.00;18440;286;7504378;-33
2023/03/21 07:36:14;;;;;;;46.90;24.10;;;;;;;-128.00;-1.00;-1.00;18449;301;7504919;-34
2023/03/21 07:38:41;;;;;;;44.40;21.20;;;;;;;-128.00;-1.00;-1.00;18482;348;7504771;-34
2023/03/21 07:41:07;;;;;;;45.20;20.90;;;;;;;-128.00;-1.00;-1.00;18480;297;7504779;-34
2023/03/21 07:43:32;;;;;;;32.40;13.60;;;;;;;-128.00;-1.00;-1.00;18465;297;7504759;-36
2023/03/21 07:45:59;;;;;;;47.90;19.80;;;;;;;-128.00;-1.00;-1.00;18863;332;7504692;-33
2023/03/21 07:48:25;;;;;;;49.30;19.80;;;;;;;-128.00;-1.00;-1.00;18849;297;7506694;-35
2023/03/21 07:50:51;;;;;;;42.50;21.30;;;;;;;-128.00;-1.00;-1.00;18859;297;7504434;-34
2023/03/21 07:53:17;;;;;;;53.80;25.30;;;;;;;-128.00;-1.00;-1.00;18875;297;7504142;-35
2023/03/21 07:55:44;;;;;;;43.30;20.80;;;;;;;-128.00;-1.00;-1.00;18859;289;7505044;-35
2023/03/21 07:58:10;;;;;;;47.60;22.30;;;;;;;-128.00;-1.00;-1.00;18870;297;7504881;-33
2023/03/21 08:00:37;;;;;;;45.30;23.10;;;;;;;-128.00;-1.00;-1.00;18869;297;7504374;-36
2023/03/21 08:03:03;;;;;;;41.20;22.90;;;;;;;-128.00;-1.00;-1.00;18835;349;7504268;-35
2023/03/21 08:05:33;;;;;;;42.40;22.60;;;;;;;-128.00;-1.00;-1.00;18853;297;7504519;-36
2023/03/21 08:07:58;;;;;;;38.90;20.00;;;;;;;-128.00;-1.00;-1.00;18447;297;7505872;-34
2023/03/21 08:10:25;;;;;;;42.10;19.60;;;;;;;-128.00;-1.00;-1.00;18854;297;7504363;-35
2023/03/21 08:12:51;;;;;;;34.50;18.50;;;;;;;-128.00;-1.00;-1.00;18853;297;7504832;-34
2023/03/21 08:15:18;;;;;;;36.60;19.20;;;;;;;-128.00;-1.00;-1.00;18479;289;7504787;-34
2023/03/21 08:17:46;;;;;;;34.90;18.80;;;;;;;-128.00;-1.00;-1.00;18464;297;7505737;-36
2023/03/21 08:20:15;;;;;;;36.90;18.30;;;;;;;-128.00;-1.00;-1.00;18458;297;7505158;-33
2023/03/21 08:22:41;;;;;;;25.50;13.10;;;;;;;-128.00;-1.00;-1.00;18464;297;7504392;-33
2023/03/21 08:25:07;;;;;;;15.10;7.90;;;;;;;-128.00;-1.00;-1.00;18457;297;7504920;-34
2023/03/21 08:27:33;;;;;;;29.10;16.20;;;;;;;-128.00;-1.00;-1.00;18474;289;7505831;-35
2023/03/21 08:29:59;;;;;;;26.00;11.00;;;;;;;-128.00;-1.00;-1.00;18448;323;7506510;-33
2023/03/21 08:32:28;;;;;;;29.30;17.00;;;;;;;-128.00;-1.00;-1.00;18471;297;7504191;-35
2023/03/21 08:34:56;;;;;;;31.40;19.00;;;;;;;-128.00;-1.00;-1.00;18485;297;7505118;-34
2023/03/21 08:37:22;;;;;;;37.60;18.50;;;;;;;-128.00;-1.00;-1.00;18454;289;7504811;-36
2023/03/21 08:39:48;;;;;;;33.90;17.60;;;;;;;-128.00;-1.00;-1.00;18460;297;7505225;-36
2023/03/21 08:42:14;;;;;;;33.40;14.40;;;;;;;-128.00;-1.00;-1.00;18868;297;7504307;-34
2023/03/21 08:44:40;;;;;;;29.50;15.40;;;;;;;-128.00;-1.00;-1.00;18886;285;7505670;-34
2023/03/21 08:47:07;;;;;;;27.60;15.60;;;;;;;-128.00;-1.00;-1.00;18863;337;7504749;-35
2023/03/21 08:49:36;;;;;;;13.40;7.80;;;;;;;-128.00;-1.00;-1.00;18867;289;7505062;-36
2023/03/21 08:52:02;;;;;;;21.80;14.10;;;;;;;-128.00;-1.00;-1.00;18458;297;7507115;-33
2023/03/21 08:54:27;;;;;;;24.80;13.70;;;;;;;-128.00;-1.00;-1.00;18482;297;7506162;-33
2023/03/21 08:56:53;;;;;;;25.40;13.70;;;;;;;-128.00;-1.00;-1.00;18465;289;7505640;-36
2023/03/21 08:59:19;;;;;;;27.90;15.50;;;;;;;-128.00;-1.00;-1.00;18844;297;7504591;-34
2023/03/21 09:01:45;;;;;;;24.70;12.70;;;;;;;-128.00;-1.00;-1.00;18866;297;7504640;-36
2023/03/21 09:04:12;;;;;;;27.30;15.40;;;;;;;-128.00;-1.00;-1.00;18860;289;7504203;-33
2023/03/21 09:06:44;;;;;;;20.90;12.90;;;;;;;-128.00;-1.00;-1.00;18865;289;7504361;-36
2023/03/21 09:09:11;;;;;;;27.20;13.90;;;;;;;-128.00;-1.00;-1.00;18445;289;7505639;-33
2023/03/21 09:11:37;;;;;;;20.50;12.90;;;;;;;-128.00;-1.00;-1.00;18442;337;7505064;-36
2023/03/21 09:14:03;;;;;;;28.20;14.10;;;;;;;-128.00;-1.00;-1.00;18860;342;7505236;-36
2023/03/21 09:16:30;;;;;;;16.30;10.20;;;;;;;-128.00;-1.00;-1.00;18440;297;7506038;-35
2023/03/21 09:18:57;;;;;;;28.00;13.70;;;;;;;-128.00;-1.00;-1.00;18459;348;7504771;-33
2023/03/21 09:21:24;;;;;;;16.70;10.60;;;;;;;-128.00;-1.00;-1.00;18463;297;7504349;-35
2023/03/21 09:23:51;;;;;;;23.70;15.00;;;;;;;-128.00;-1.00;-1.00;18446;297;7504977;-36
2023/03/21 09:26:18;;;;;;;18.20;11.60;;;;;;;-128.00;-1.00;-1.00;18454;337;7505024;-33
2023/03/21 09:28:45;;;;;;;15.80;10.80;;;;;;;-128.00;-1.00;-1.00;18455;348;7506212;-36
2023/03/21 09:31:11;;;;;;;15.70;8.90;;;;;;;-128.00;-1.00;-1.00;18464;297;7504645;-33
2023/03/21 09:33:39;;;;;;;20.30;10.90;;;;;;;-128.00;-1.00;-1.00;18461;296;7506128;-32
2023/03/21 09:36:10;;;;;;;19.10;11.60;;;;;;;-128.00;-1.00;-1.00;18458;297;7504383;-33
2023/03/21 09:38:38;;;;;;;24.30;12.60;;;;;;;-128.00;-1.00;-1.00;18465;297;7504657;-32
2023/03/21 09:41:16;;;;;;;14.20;9.90;;;;;;;-128.00;-1.00;-1.00;18458;297;7506159;-36
2023/03/21 09:43:50;;;;;;;14.70;9.80;;;;;;;-128.00;-1.00;-1.00;18453;296;7504726;-32
2023/03/21 09:46:22;;;;;;;15.20;9.60;;;;;;;-128.00;-1.00;-1.00;18447;297;7504707;-32
2023/03/21 09:48:57;;;;;;;26.80;12.50;;;;;;;-128.00;-1.00;-1.00;18464;297;7504928;-32
2023/03/21 09:51:30;;;;;;;14.20;9.80;;;;;;;-128.00;-1.00;-1.00;18458;341;7504771;-32
2023/03/21 09:53:56;;;;;;;18.10;9.50;;;;;;;-128.00;-1.00;-1.00;18461;342;7504552;-35
2023/03/21 09:56:23;;;;;;;12.30;7.70;;;;;;;-128.00;-1.00;-1.00;18457;285;7504373;-31
2023/03/21 09:58:52;;;;;;;11.40;7.60;;;;;;;-128.00;-1.00;-1.00;18476;296;7504905;-32
2023/03/21 10:01:28;;;;;;;16.00;9.50;;;;;;;-128.00;-1.00;-1.00;18462;289;7505086;-35
2023/03/21 10:04:06;;;;;;;24.00;8.90;;;;;;;-128.00;-1.00;-1.00;18464;285;7505062;-37
2023/03/21 10:06:34;;;;;;;16.50;9.10;;;;;;;-128.00;-1.00;-1.00;18471;285;7505473;-35
2023/03/21 10:09:08;;;;;;;11.50;7.30;;;;;;;-128.00;-1.00;-1.00;18456;297;7504903;-31
2023/03/21 10:11:41;;;;;;;16.40;11.40;;;;;;;-128.00;-1.00;-1.00;18497;297;7504489;-35
2023/03/21 10:14:15;;;;;;;16.50;9.60;;;;;;;-128.00;-1.00;-1.00;18480;297;7507197;-32
2023/03/21 10:16:43;;;;;;;10.60;6.20;;;;;;;-128.00;-1.00;-1.00;18461;297;7506274;-31
2023/03/21 10:19:12;;;;;;;15.70;7.80;;;;;;;-128.00;-1.00;-1.00;18447;297;7506631;-32
2023/03/21 10:21:42;;;;;;;11.30;7.20;;;;;;;-128.00;-1.00;-1.00;18459;289;7504576;-35
2023/03/21 10:24:11;;;;;;;10.60;7.80;;;;;;;-128.00;-1.00;-1.00;18478;348;7505992;-35
2023/03/21 10:26:37;;;;;;;12.50;8.30;;;;;;;-128.00;-1.00;-1.00;18482;289;7504601;-36
2023/03/21 10:29:02;;;;;;;16.90;9.20;;;;;;;-128.00;-1.00;-1.00;18441;289;7507023;-31
2023/03/21 10:31:29;;;;;;;19.50;7.80;;;;;;;-128.00;-1.00;-1.00;18470;289;7505047;-35
2023/03/21 10:33:56;;;;;;;14.20;8.90;;;;;;;-128.00;-1.00;-1.00;18464;285;7506160;-34
2023/03/21 10:36:24;;;;;;;13.80;9.30;;;;;;;-128.00;-1.00;-1.00;18471;305;7504728;-35
2023/03/21 10:39:03;;;;;;;21.60;11.20;;;;;;;-128.00;-1.00;-1.00;18482;337;7505039;-35
2023/03/21 10:41:30;;;;;;;12.60;8.90;;;;;;;-128.00;-1.00;-1.00;18476;289;7506273;-30
2023/03/21 10:44:10;;;;;;;28.80;9.70;;;;;;;-128.00;-1.00;-1.00;18478;296;7505211;-34
2023/03/21 10:46:36;;;;;;;16.80;10.10;;;;;;;-128.00;-1.00;-1.00;18455;297;7505285;-31
2023/03/21 10:49:02;;;;;;;14.10;8.90;;;;;;;-128.00;-1.00;-1.00;18458;297;7504263;-31
2023/03/21 10:51:32;;;;;;;10.20;7.70;;;;;;;-128.00;-1.00;-1.00;18468;297;7504343;-34
2023/03/21 10:54:02;;;;;;;17.40;9.90;;;;;;;-128.00;-1.00;-1.00;18471;296;7505058;-33
2023/03/21 10:56:29;;;;;;;16.80;10.60;;;;;;;-128.00;-1.00;-1.00;18474;348;7504697;-35
2023/03/21 10:58:57;;;;;;;21.10;9.20;;;;;;;-128.00;-1.00;-1.00;18484;296;7504369;-35
2023/03/21 11:01:30;;;;;;;14.00;7.90;;;;;;;-128.00;-1.00;-1.00;18476;289;7504907;-35
2023/03/21 11:03:58;;;;;;;9.00;6.30;;;;;;;-128.00;-1.00;-1.00;18460;297;7506347;-35
2023/03/21 11:46:31;;;;;;;11.70;8.30;;;;;;;-100.30;16.08;19888.96;19555;295;8044556;-35
2023/03/21 11:48:59;;;;;;;8.60;6.80;;;;;;;-128.00;-1.00;-1.00;18185;289;7505138;-35
2023/03/21 11:51:30;;;;;;;10.00;7.20;;;;;;;-128.00;-1.00;-1.00;18435;347;7505528;-36
2023/03/21 11:54:19;;;;;;;12.10;8.50;;;;;;;-128.00;-1.00;-1.00;18441;295;7505316;-35
2023/03/21 11:56:53;;;;;;;13.40;7.30;;;;;;;-128.00;-1.00;-1.00;18467;295;7504559;-35
2023/03/21 11:59:36;;;;;;;11.90;8.30;;;;;;;-128.00;-1.00;-1.00;18456;296;7505626;-34
2023/03/21 12:02:24;;;;;;;20.70;10.00;;;;;;;-128.00;-1.00;-1.00;18487;336;7504969;-34
2023/03/21 12:05:18;;;;;;;7.00;6.00;;;;;;;-128.00;-1.00;-1.00;18471;295;7504297;-35
2023/03/21 12:07:50;;;;;;;13.50;9.30;;;;;;;-128.00;-1.00;-1.00;18453;295;7504730;-35
2023/03/21 12:10:31;;;;;;;12.40;9.30;;;;;;;-128.00;-1.00;-1.00;18473;295;7505165;-31
2023/03/21 12:13:19;;;;;;;21.00;8.40;;;;;;;-128.00;-1.00;-1.00;18519;288;7504791;-32
2023/03/21 12:16:04;;;;;;;13.50;9.60;;;;;;;-128.00;-1.00;-1.00;18508;295;7506651;-35
2023/03/21 12:18:44;;;;;;;12.80;7.30;;;;;;;-128.00;-1.00;-1.00;18461;295;7505160;-35
2023/03/21 12:21:17;;;;;;;20.10;8.60;;;;;;;-128.00;-1.00;-1.00;18469;295;7505375;-34
2023/03/21 12:24:02;;;;;;;8.80;6.40;;;;;;;-128.00;-1.00;-1.00;18483;288;7504617;-35
2023/03/21 12:26:34;;;;;;;11.10;6.60;;;;;;;-128.00;-1.00;-1.00;18522;295;7504733;-35
2023/03/21 12:29:18;;;;;;;17.00;7.80;;;;;;;-128.00;-1.00;-1.00;18463;347;7504765;-31
2023/03/21 12:32:09;;;;;;;14.50;7.60;;;;;;;-128.00;-1.00;-1.00;18449;295;7505952;-31
2023/03/21 12:34:49;;;;;;;9.70;6.00;;;;;;;-128.00;-1.00;-1.00;18470;295;7504530;-31
2023/03/21 12:37:31;;;;;;;11.20;7.70;;;;;;;-128.00;-1.00;-1.00;18467;297;7504156;-35
2023/03/21 12:40:07;;;;;;;5.00;3.60;;;;;;;-128.00;-1.00;-1.00;18454;295;7504437;-31
2023/03/21 12:42:48;;;;;;;10.00;6.50;;;;;;;-128.00;-1.00;-1.00;18449;295;7504780;-31
2023/03/21 12:45:23;;;;;;;5.90;4.90;;;;;;;-128.00;-1.00;-1.00;18493;304;7506298;-35
2023/03/21 12:47:54;;;;;;;8.90;6.80;;;;;;;-128.00;-1.00;-1.00;18492;307;7504716;-35
2023/03/21 12:50:26;;;;;;;16.20;7.70;;;;;;;-128.00;-1.00;-1.00;18491;295;7505037;-34